TSO876 FACT-GCTS
Flight info
| Callsign | TSO876 |
|---|---|
| Flight time | N/A |
| Altitude | 35000 |
| Route | IMSOM1A IMSOM UQ34 UVIKU UN188 APGAS/N0488F360 UN188 UTVUM/N0490F350 UN188 XALVI/N0488F360 UN190 VMO/N0488F370 UY242 LIKAD/N0485F380 UR526 LV UG856 LAG UR984 TAMIL/N0481F400 UR984 OG UR866 SOLMA UT365 MIYEC N728 REMGI |
| Aircraft | B772/H-SDE2E3FGHIJ5LORVWXY/LB1D1 |
Departure
| Time | 2026-05-06 08:00 |
|---|---|
| Airport | Cape Town International Airport (FACT) |
Arrival
| Time | N/A |
|---|---|
| Airport | Tenerife Sur Airport (GCTS) |
| Time | Latitude | Longitude | Altitude | Speed | Heading |
|---|---|---|---|---|---|
| 2026-05-06 07:35 | -33.97065 | 18.59881 | 164 ft | 0 kts | 255° |
| 2026-05-06 07:49 | -33.97062 | 18.59894 | 164 ft | 1 kts | 255° |
| 2026-05-06 07:49 | -33.97060 | 18.59906 | 164 ft | 2 kts | 251° |
| 2026-05-06 07:50 | -33.97053 | 18.59921 | 164 ft | 2 kts | 229° |
| 2026-05-06 07:50 | -33.97042 | 18.59934 | 164 ft | 2 kts | 213° |
| 2026-05-06 07:50 | -33.97029 | 18.59942 | 164 ft | 2 kts | 196° |
| 2026-05-06 07:50 | -33.97014 | 18.59945 | 164 ft | 2 kts | 179° |
| 2026-05-06 07:51 | -33.97001 | 18.59943 | 164 ft | 0 kts | 165° |
| 2026-05-06 07:51 | -33.96997 | 18.59942 | 164 ft | 0 kts | 163° |
| 2026-05-06 07:52 | -33.97002 | 18.59943 | 164 ft | 1 kts | 165° |
| 2026-05-06 07:53 | -33.97019 | 18.59949 | 164 ft | 3 kts | 165° |
| 2026-05-06 07:53 | -33.97047 | 18.59957 | 164 ft | 5 kts | 165° |
| 2026-05-06 07:53 | -33.97088 | 18.59967 | 164 ft | 6 kts | 171° |
| 2026-05-06 07:53 | -33.97140 | 18.59977 | 164 ft | 8 kts | 167° |
| 2026-05-06 07:54 | -33.97199 | 18.59994 | 164 ft | 9 kts | 165° |
| 2026-05-06 07:54 | -33.97267 | 18.60015 | 164 ft | 10 kts | 165° |
| 2026-05-06 07:54 | -33.97342 | 18.60039 | 164 ft | 11 kts | 165° |
| 2026-05-06 07:54 | -33.97423 | 18.60066 | 164 ft | 12 kts | 164° |
| 2026-05-06 07:55 | -33.97508 | 18.60101 | 164 ft | 13 kts | 156° |
| 2026-05-06 07:55 | -33.97595 | 18.60147 | 164 ft | 14 kts | 157° |
| 2026-05-06 07:55 | -33.97689 | 18.60189 | 164 ft | 14 kts | 161° |
| 2026-05-06 07:55 | -33.97788 | 18.60230 | 164 ft | 15 kts | 160° |
| 2026-05-06 07:56 | -33.97890 | 18.60273 | 164 ft | 15 kts | 160° |
| 2026-05-06 07:56 | -33.97995 | 18.60319 | 164 ft | 16 kts | 159° |
| 2026-05-06 07:56 | -33.98102 | 18.60367 | 164 ft | 16 kts | 159° |
| 2026-05-06 07:56 | -33.98213 | 18.60413 | 164 ft | 17 kts | 161° |
| 2026-05-06 07:57 | -33.98326 | 18.60460 | 164 ft | 17 kts | 160° |
| 2026-05-06 07:57 | -33.98441 | 18.60510 | 164 ft | 17 kts | 160° |
| 2026-05-06 07:57 | -33.98557 | 18.60561 | 164 ft | 17 kts | 159° |
| 2026-05-06 07:57 | -33.98674 | 18.60613 | 164 ft | 14 kts | 160° |
| 2026-05-06 07:58 | -33.98754 | 18.60647 | 164 ft | 11 kts | 160° |
| 2026-05-06 07:58 | -33.98796 | 18.60721 | 164 ft | 12 kts | 83° |
| 2026-05-06 07:58 | -33.98770 | 18.60821 | 164 ft | 12 kts | 62° |
| 2026-05-06 07:58 | -33.98695 | 18.60870 | 164 ft | 12 kts | 359° |
| 2026-05-06 07:59 | -33.98572 | 18.60833 | 164 ft | 30 kts | 344° |
| 2026-05-06 07:59 | -33.98151 | 18.60697 | 164 ft | 97 kts | 345° |
| 2026-05-06 07:59 | -33.97282 | 18.60418 | 165 ft | 158 kts | 345° |
| 2026-05-06 07:59 | -33.96130 | 18.60040 | 569 ft | 174 kts | 345° |
| 2026-05-06 08:00 | -33.94942 | 18.59614 | 1150 ft | 186 kts | 345° |
| 2026-05-06 08:00 | -33.93682 | 18.59159 | 1647 ft | 193 kts | 345° |
| 2026-05-06 08:00 | -33.92351 | 18.58678 | 2075 ft | 200 kts | 345° |
| 2026-05-06 08:00 | -33.91068 | 18.58031 | 2553 ft | 204 kts | 323° |
| 2026-05-06 08:01 | -33.90093 | 18.56759 | 2983 ft | 208 kts | 302° |
| 2026-05-06 08:01 | -33.89275 | 18.55280 | 3374 ft | 217 kts | 302° |
| 2026-05-06 08:01 | -33.88156 | 18.53946 | 3580 ft | 236 kts | 324° |
| 2026-05-06 08:01 | -33.86724 | 18.52821 | 3882 ft | 254 kts | 328° |
| 2026-05-06 08:02 | -33.85173 | 18.51660 | 4209 ft | 272 kts | 326° |
| 2026-05-06 08:02 | -33.83825 | 18.50007 | 4519 ft | 285 kts | 295° |
| 2026-05-06 08:02 | -33.83331 | 18.47713 | 4995 ft | 286 kts | 268° |
| 2026-05-06 08:02 | -33.83067 | 18.45342 | 5725 ft | 290 kts | 285° |
| 2026-05-06 08:03 | -33.82041 | 18.43176 | 6028 ft | 312 kts | 312° |
| 2026-05-06 08:03 | -33.80207 | 18.41668 | 6248 ft | 331 kts | 336° |
| 2026-05-06 08:03 | -33.78021 | 18.40581 | 6576 ft | 347 kts | 339° |
| 2026-05-06 08:03 | -33.75722 | 18.39497 | 6917 ft | 362 kts | 339° |
| 2026-05-06 08:04 | -33.73329 | 18.38374 | 7298 ft | 376 kts | 339° |
| 2026-05-06 08:04 | -33.70870 | 18.37221 | 7858 ft | 383 kts | 339° |
| 2026-05-06 08:04 | -33.68367 | 18.36047 | 8526 ft | 387 kts | 339° |
| 2026-05-06 08:04 | -33.65845 | 18.34866 | 9164 ft | 391 kts | 340° |
| 2026-05-06 08:05 | -33.63302 | 18.33675 | 9830 ft | 394 kts | 340° |
| 2026-05-06 08:05 | -33.60739 | 18.32476 | 10486 ft | 398 kts | 340° |
| 2026-05-06 08:05 | -33.58153 | 18.31267 | 11146 ft | 400 kts | 340° |
| 2026-05-06 08:05 | -33.55547 | 18.30049 | 11814 ft | 403 kts | 339° |
| 2026-05-06 08:06 | -33.52925 | 18.28823 | 12458 ft | 406 kts | 340° |
| 2026-05-06 08:06 | -33.50275 | 18.27587 | 13052 ft | 410 kts | 339° |
| 2026-05-06 08:06 | -33.47613 | 18.26345 | 13728 ft | 412 kts | 339° |
| 2026-05-06 08:06 | -33.44937 | 18.25098 | 14352 ft | 414 kts | 339° |
| 2026-05-06 08:07 | -33.42242 | 18.23842 | 14949 ft | 418 kts | 339° |
| 2026-05-06 08:07 | -33.39526 | 18.22578 | 15586 ft | 420 kts | 339° |
| 2026-05-06 08:07 | -33.36801 | 18.21310 | 16229 ft | 421 kts | 339° |
| 2026-05-06 08:07 | -33.34062 | 18.20037 | 16811 ft | 424 kts | 339° |
| 2026-05-06 08:08 | -33.31307 | 18.18757 | 17420 ft | 426 kts | 338° |
| 2026-05-06 08:08 | -33.28535 | 18.17470 | 17993 ft | 428 kts | 338° |
| 2026-05-06 08:08 | -33.25745 | 18.16175 | 18586 ft | 430 kts | 338° |
| 2026-05-06 08:08 | -33.22954 | 18.14881 | 19203 ft | 431 kts | 338° |
| 2026-05-06 08:09 | -33.20153 | 18.13583 | 19795 ft | 433 kts | 338° |
| 2026-05-06 08:09 | -33.17338 | 18.12279 | 20355 ft | 435 kts | 339° |
| 2026-05-06 08:09 | -33.14505 | 18.10968 | 20869 ft | 438 kts | 339° |
| 2026-05-06 08:09 | -33.11655 | 18.09651 | 21375 ft | 441 kts | 339° |
| 2026-05-06 08:10 | -33.08788 | 18.08325 | 21900 ft | 443 kts | 339° |
| 2026-05-06 08:10 | -33.05908 | 18.06996 | 22441 ft | 445 kts | 339° |
| 2026-05-06 08:10 | -33.03020 | 18.05663 | 22985 ft | 446 kts | 339° |
| 2026-05-06 08:10 | -33.00120 | 18.04326 | 23486 ft | 448 kts | 339° |
| 2026-05-06 08:11 | -32.97198 | 18.02980 | 23890 ft | 452 kts | 339° |
| 2026-05-06 08:11 | -32.94238 | 18.01617 | 24230 ft | 458 kts | 339° |
| 2026-05-06 08:11 | -32.91247 | 18.00241 | 24619 ft | 462 kts | 339° |
| 2026-05-06 08:11 | -32.88243 | 17.98860 | 25022 ft | 465 kts | 338° |
| 2026-05-06 08:12 | -32.85206 | 17.97465 | 25368 ft | 470 kts | 338° |
| 2026-05-06 08:12 | -32.82147 | 17.96060 | 25704 ft | 474 kts | 338° |
| 2026-05-06 08:12 | -32.79056 | 17.94642 | 26017 ft | 479 kts | 338° |
| 2026-05-06 08:12 | -32.75937 | 17.93212 | 26351 ft | 482 kts | 338° |
| 2026-05-06 08:13 | -32.72779 | 17.91765 | 26555 ft | 489 kts | 338° |
| 2026-05-06 08:13 | -32.69584 | 17.90302 | 26812 ft | 494 kts | 338° |
| 2026-05-06 08:13 | -32.66473 | 17.88879 | 27117 ft | 497 kts | 338° |
| 2026-05-06 08:13 | -32.63228 | 17.87396 | 27335 ft | 503 kts | 337° |
| 2026-05-06 08:14 | -32.59907 | 17.85879 | 27595 ft | 507 kts | 337° |
| 2026-05-06 08:14 | -32.56599 | 17.84369 | 27949 ft | 509 kts | 336° |
| 2026-05-06 08:14 | -32.53266 | 17.82850 | 28252 ft | 512 kts | 336° |
| 2026-05-06 08:14 | -32.49916 | 17.81323 | 28524 ft | 515 kts | 336° |
| 2026-05-06 08:15 | -32.46516 | 17.79775 | 28739 ft | 519 kts | 336° |
| 2026-05-06 08:15 | -32.43093 | 17.78217 | 28866 ft | 525 kts | 336° |
| 2026-05-06 08:15 | -32.39639 | 17.76647 | 29075 ft | 529 kts | 335° |
| 2026-05-06 08:15 | -32.36172 | 17.75072 | 29373 ft | 532 kts | 335° |
| 2026-05-06 08:16 | -32.32688 | 17.73491 | 29621 ft | 535 kts | 335° |
| 2026-05-06 08:16 | -32.29202 | 17.71910 | 29850 ft | 538 kts | 335° |
| 2026-05-06 08:16 | -32.25683 | 17.70315 | 30075 ft | 541 kts | 335° |
| 2026-05-06 08:16 | -32.22156 | 17.68719 | 30329 ft | 543 kts | 335° |
| 2026-05-06 08:17 | -32.18621 | 17.67120 | 30625 ft | 544 kts | 334° |
| 2026-05-06 08:17 | -32.15088 | 17.65524 | 31079 ft | 541 kts | 335° |
| 2026-05-06 08:17 | -32.11575 | 17.63939 | 31514 ft | 539 kts | 334° |
| 2026-05-06 08:17 | -32.08065 | 17.62356 | 31909 ft | 538 kts | 334° |
| 2026-05-06 08:18 | -32.04585 | 17.60789 | 32334 ft | 536 kts | 334° |
| 2026-05-06 08:18 | -32.01103 | 17.59221 | 32748 ft | 534 kts | 334° |
| 2026-05-06 08:18 | -31.97635 | 17.57662 | 33144 ft | 532 kts | 334° |
| 2026-05-06 08:18 | -31.94182 | 17.56110 | 33544 ft | 530 kts | 334° |
| 2026-05-06 08:19 | -31.90731 | 17.54560 | 33876 ft | 529 kts | 334° |
| 2026-05-06 08:19 | -31.87278 | 17.53010 | 34219 ft | 527 kts | 334° |
| 2026-05-06 08:19 | -31.83828 | 17.51463 | 34509 ft | 527 kts | 334° |
| 2026-05-06 08:19 | -31.80387 | 17.49921 | 34778 ft | 526 kts | 334° |
| 2026-05-06 08:20 | -31.76942 | 17.48378 | 35055 ft | 526 kts | 334° |
| 2026-05-06 08:20 | -31.74271 | 17.47183 | 35110 ft | 528 kts | 334° |
| 2026-05-06 08:20 | -31.67338 | 17.44082 | 35138 ft | 536 kts | 334° |
| 2026-05-06 08:21 | -31.60316 | 17.40946 | 35128 ft | 542 kts | 334° |
| 2026-05-06 08:21 | -31.53252 | 17.37798 | 35130 ft | 542 kts | 334° |
| 2026-05-06 08:22 | -31.46207 | 17.34665 | 35131 ft | 541 kts | 334° |
| 2026-05-06 08:22 | -31.39142 | 17.31527 | 35136 ft | 541 kts | 334° |
| 2026-05-06 08:23 | -31.32094 | 17.28402 | 35138 ft | 542 kts | 334° |
| 2026-05-06 08:23 | -31.25034 | 17.25278 | 35137 ft | 540 kts | 334° |
| 2026-05-06 08:24 | -31.17991 | 17.22165 | 35145 ft | 540 kts | 334° |
| 2026-05-06 08:24 | -31.10958 | 17.19062 | 35142 ft | 540 kts | 334° |
| 2026-05-06 08:25 | -31.03923 | 17.15962 | 35147 ft | 540 kts | 334° |
| 2026-05-06 08:25 | -30.96872 | 17.12860 | 35142 ft | 541 kts | 334° |
| 2026-05-06 08:26 | -30.89831 | 17.09769 | 35144 ft | 540 kts | 334° |
| 2026-05-06 08:26 | -30.82791 | 17.06683 | 35137 ft | 539 kts | 334° |
| 2026-05-06 08:27 | -30.75765 | 17.03606 | 35134 ft | 540 kts | 334° |
| 2026-05-06 08:27 | -30.69530 | 17.00881 | 35133 ft | 539 kts | 334° |
| 2026-05-06 08:28 | -30.62502 | 16.97813 | 35143 ft | 538 kts | 334° |
| 2026-05-06 08:28 | -30.55479 | 16.94761 | 35152 ft | 539 kts | 336° |
| 2026-05-06 08:29 | -30.48099 | 16.92745 | 35150 ft | 546 kts | 345° |
| 2026-05-06 08:29 | -30.40579 | 16.91162 | 35163 ft | 549 kts | 345° |
| 2026-05-06 08:30 | -30.33070 | 16.89589 | 35162 ft | 547 kts | 345° |
| 2026-05-06 08:30 | -30.25566 | 16.88019 | 35159 ft | 547 kts | 345° |
| 2026-05-06 08:31 | -30.18048 | 16.86448 | 35177 ft | 548 kts | 345° |
| 2026-05-06 08:31 | -30.10542 | 16.84883 | 35170 ft | 548 kts | 344° |
| 2026-05-06 08:32 | -30.03032 | 16.83319 | 35184 ft | 547 kts | 345° |
| 2026-05-06 08:32 | -29.95529 | 16.81759 | 35190 ft | 547 kts | 344° |
| 2026-05-06 08:33 | -29.88018 | 16.80199 | 35178 ft | 547 kts | 344° |
| 2026-05-06 08:33 | -29.80508 | 16.78642 | 35162 ft | 546 kts | 344° |
| 2026-05-06 08:34 | -29.69564 | 16.76377 | 35183 ft | 547 kts | 344° |
| 2026-05-06 08:35 | -29.62046 | 16.74825 | 35140 ft | 546 kts | 344° |
| 2026-05-06 08:35 | -29.54540 | 16.73277 | 35182 ft | 548 kts | 344° |
| 2026-05-06 08:36 | -29.47054 | 16.71736 | 35176 ft | 546 kts | 343° |
| 2026-05-06 08:36 | -29.39552 | 16.70193 | 35176 ft | 548 kts | 343° |
| 2026-05-06 08:37 | -29.32037 | 16.68651 | 35158 ft | 546 kts | 343° |
| 2026-05-06 08:37 | -29.24549 | 16.67115 | 35177 ft | 547 kts | 343° |
| 2026-05-06 08:38 | -29.17049 | 16.65580 | 35151 ft | 548 kts | 343° |
| 2026-05-06 08:38 | -29.09538 | 16.64045 | 35167 ft | 547 kts | 343° |
| 2026-05-06 08:39 | -29.02036 | 16.62514 | 35168 ft | 547 kts | 343° |
| 2026-05-06 08:39 | -28.94537 | 16.60986 | 35143 ft | 546 kts | 343° |
| 2026-05-06 08:40 | -28.87045 | 16.59462 | 35116 ft | 546 kts | 343° |
| 2026-05-06 08:40 | -28.79542 | 16.57937 | 35411 ft | 546 kts | 343° |
| 2026-05-06 08:40 | -28.75787 | 16.57175 | 35215 ft | 548 kts | 343° |
| 2026-05-06 08:41 | -28.72698 | 16.56549 | 35166 ft | 544 kts | 343° |
| 2026-05-06 08:41 | -28.65225 | 16.55034 | 35152 ft | 546 kts | 343° |
| 2026-05-06 08:42 | -28.57955 | 16.53546 | 35159 ft | 542 kts | 340° |
| 2026-05-06 08:42 | -28.50742 | 16.51216 | 35158 ft | 537 kts | 335° |
| 2026-05-06 08:43 | -28.43573 | 16.48722 | 35164 ft | 538 kts | 335° |
| 2026-05-06 08:43 | -28.36417 | 16.46239 | 35161 ft | 536 kts | 335° |
| 2026-05-06 08:44 | -28.29253 | 16.43755 | 35160 ft | 538 kts | 335° |
| 2026-05-06 08:44 | -28.22101 | 16.41273 | 35161 ft | 536 kts | 335° |
| 2026-05-06 08:45 | -28.14954 | 16.38796 | 35154 ft | 538 kts | 335° |
| 2026-05-06 08:45 | -28.07792 | 16.36318 | 35162 ft | 537 kts | 335° |
| 2026-05-06 08:46 | -28.00653 | 16.33854 | 35180 ft | 535 kts | 335° |
| 2026-05-06 08:46 | -27.93506 | 16.31388 | 35175 ft | 536 kts | 335° |
| 2026-05-06 08:47 | -27.86370 | 16.28931 | 35158 ft | 537 kts | 335° |
| 2026-05-06 08:47 | -27.79215 | 16.26471 | 35163 ft | 535 kts | 335° |
| 2026-05-06 08:48 | -27.72891 | 16.24299 | 35167 ft | 535 kts | 335° |
| 2026-05-06 08:48 | -27.65780 | 16.21861 | 35168 ft | 535 kts | 335° |
| 2026-05-06 08:49 | -27.58745 | 16.19452 | 35169 ft | 533 kts | 335° |
| 2026-05-06 08:49 | -27.51635 | 16.17018 | 35169 ft | 536 kts | 335° |
| 2026-05-06 08:50 | -27.44534 | 16.14542 | 35168 ft | 532 kts | 334° |
| 2026-05-06 08:50 | -27.37460 | 16.12053 | 35174 ft | 532 kts | 334° |
| 2026-05-06 08:51 | -27.30394 | 16.09573 | 35177 ft | 532 kts | 334° |
| 2026-05-06 08:51 | -27.23315 | 16.07092 | 35172 ft | 533 kts | 334° |
| 2026-05-06 08:52 | -27.16241 | 16.04619 | 35178 ft | 532 kts | 334° |
| 2026-05-06 08:52 | -27.09173 | 16.02151 | 35177 ft | 532 kts | 334° |
| 2026-05-06 08:53 | -27.02115 | 15.99691 | 35177 ft | 528 kts | 334° |
| 2026-05-06 08:53 | -26.95086 | 15.97242 | 35179 ft | 529 kts | 334° |
| 2026-05-06 08:54 | -26.88042 | 15.94793 | 35169 ft | 529 kts | 334° |
| 2026-05-06 08:54 | -26.80995 | 15.92345 | 35166 ft | 528 kts | 334° |
| 2026-05-06 08:55 | -26.73986 | 15.89914 | 35165 ft | 529 kts | 334° |
| 2026-05-06 08:55 | -26.67537 | 15.87681 | 35168 ft | 527 kts | 334° |
| 2026-05-06 08:56 | -26.60528 | 15.85255 | 35176 ft | 526 kts | 334° |
| 2026-05-06 08:56 | -26.53505 | 15.82831 | 35177 ft | 528 kts | 334° |
| 2026-05-06 08:57 | -26.46469 | 15.80445 | 35180 ft | 526 kts | 334° |
| 2026-05-06 08:57 | -26.39448 | 15.78069 | 35177 ft | 527 kts | 334° |
| 2026-05-06 08:58 | -26.32417 | 15.75692 | 35179 ft | 526 kts | 334° |
| 2026-05-06 08:58 | -26.25404 | 15.73323 | 35181 ft | 528 kts | 334° |
| 2026-05-06 08:59 | -26.18366 | 15.70948 | 35180 ft | 526 kts | 334° |
| 2026-05-06 08:59 | -26.11370 | 15.68591 | 35179 ft | 526 kts | 334° |
| 2026-05-06 09:00 | -26.04368 | 15.66235 | 35183 ft | 524 kts | 334° |
| 2026-05-06 09:00 | -25.97383 | 15.63886 | 35181 ft | 525 kts | 334° |
| 2026-05-06 09:01 | -25.90378 | 15.61534 | 35182 ft | 526 kts | 334° |
| 2026-05-06 09:01 | -25.83380 | 15.59187 | 35163 ft | 525 kts | 334° |
| 2026-05-06 09:02 | -25.76417 | 15.56857 | 35152 ft | 520 kts | 334° |
| 2026-05-06 09:02 | -25.70100 | 15.54742 | 35157 ft | 522 kts | 334° |
| 2026-05-06 09:03 | -25.63236 | 15.52446 | 35165 ft | 521 kts | 334° |
| 2026-05-06 09:03 | -25.56399 | 15.50152 | 35167 ft | 521 kts | 334° |
| 2026-05-06 09:04 | -25.49457 | 15.47826 | 35163 ft | 521 kts | 334° |
| 2026-05-06 09:04 | -25.42528 | 15.45509 | 35162 ft | 518 kts | 334° |
| 2026-05-06 09:05 | -25.35627 | 15.43202 | 35162 ft | 518 kts | 334° |
| 2026-05-06 09:05 | -25.28706 | 15.40892 | 35159 ft | 519 kts | 334° |
| 2026-05-06 09:06 | -25.21805 | 15.38592 | 35163 ft | 515 kts | 334° |
| 2026-05-06 09:06 | -25.14948 | 15.36309 | 35158 ft | 515 kts | 334° |
| 2026-05-06 09:07 | -25.08068 | 15.34020 | 35172 ft | 517 kts | 334° |
| 2026-05-06 09:07 | -25.01190 | 15.31736 | 35167 ft | 514 kts | 335° |
| 2026-05-06 09:08 | -24.94340 | 15.29445 | 35167 ft | 514 kts | 335° |
| 2026-05-06 09:08 | -24.87479 | 15.27151 | 35154 ft | 514 kts | 335° |
| 2026-05-06 09:09 | -24.80654 | 15.24874 | 35150 ft | 512 kts | 335° |
| 2026-05-06 09:09 | -24.74576 | 15.22846 | 35150 ft | 513 kts | 335° |
| 2026-05-06 09:10 | -24.67927 | 15.20633 | 35148 ft | 511 kts | 335° |
| 2026-05-06 09:10 | -24.61093 | 15.18359 | 35148 ft | 511 kts | 335° |
| 2026-05-06 09:11 | -24.54289 | 15.16098 | 35143 ft | 510 kts | 335° |
| 2026-05-06 09:11 | -24.47484 | 15.13839 | 35139 ft | 510 kts | 335° |
| 2026-05-06 09:12 | -24.40688 | 15.11587 | 35131 ft | 508 kts | 335° |
| 2026-05-06 09:12 | -24.33902 | 15.09339 | 35132 ft | 510 kts | 335° |
| 2026-05-06 09:13 | -24.27129 | 15.07100 | 35132 ft | 507 kts | 335° |
| 2026-05-06 09:13 | -24.20356 | 15.04862 | 35129 ft | 507 kts | 335° |
| 2026-05-06 09:14 | -24.13595 | 15.02632 | 35126 ft | 506 kts | 335° |
| 2026-05-06 09:14 | -24.06824 | 15.00404 | 35127 ft | 507 kts | 335° |
| 2026-05-06 09:15 | -24.00033 | 14.98171 | 35427 ft | 508 kts | 336° |
| 2026-05-06 09:15 | -23.96672 | 14.97070 | 36065 ft | 499 kts | 335° |
| 2026-05-06 09:15 | -23.93397 | 14.96000 | 37078 ft | 485 kts | 335° |
| 2026-05-06 09:15 | -23.90217 | 14.94961 | 37983 ft | 472 kts | 335° |
| 2026-05-06 09:16 | -23.87087 | 14.93935 | 38455 ft | 467 kts | 335° |
| 2026-05-06 09:16 | -23.80839 | 14.91880 | 38550 ft | 472 kts | 335° |
| 2026-05-06 09:17 | -23.75245 | 14.90040 | 38671 ft | 475 kts | 335° |
| 2026-05-06 09:17 | -23.72061 | 14.88977 | 38937 ft | 472 kts | 335° |
| 2026-05-06 09:17 | -23.68928 | 14.87930 | 39176 ft | 471 kts | 335° |
| 2026-05-06 09:18 | -23.62742 | 14.85862 | 39292 ft | 473 kts | 335° |
| 2026-05-06 09:18 | -23.59590 | 14.84811 | 39424 ft | 473 kts | 335° |
| 2026-05-06 09:18 | -23.56442 | 14.83762 | 39542 ft | 473 kts | 335° |
| 2026-05-06 09:18 | -23.53292 | 14.82713 | 39664 ft | 473 kts | 335° |
| 2026-05-06 09:19 | -23.50150 | 14.81668 | 39894 ft | 470 kts | 335° |
| 2026-05-06 09:19 | -23.47024 | 14.80628 | 40059 ft | 469 kts | 335° |
| 2026-05-06 09:19 | -23.43904 | 14.79591 | 40118 ft | 468 kts | 335° |
| 2026-05-06 09:20 | -23.37669 | 14.77519 | 40118 ft | 469 kts | 335° |
| 2026-05-06 09:20 | -23.31416 | 14.75443 | 40121 ft | 470 kts | 335° |
| 2026-05-06 09:21 | -23.25159 | 14.73369 | 40122 ft | 470 kts | 335° |
| 2026-05-06 09:21 | -23.18896 | 14.71294 | 40117 ft | 470 kts | 335° |
| 2026-05-06 09:22 | -23.12632 | 14.69222 | 40128 ft | 471 kts | 335° |
| 2026-05-06 09:22 | -23.06361 | 14.67149 | 40131 ft | 470 kts | 335° |
| 2026-05-06 09:23 | -23.00107 | 14.65084 | 40128 ft | 469 kts | 336° |
| 2026-05-06 09:23 | -22.93877 | 14.63002 | 40131 ft | 467 kts | 335° |
| 2026-05-06 09:24 | -22.87655 | 14.60895 | 40121 ft | 468 kts | 335° |
| 2026-05-06 09:24 | -22.81436 | 14.58793 | 40121 ft | 468 kts | 335° |
| 2026-05-06 09:25 | -22.75304 | 14.56724 | 40108 ft | 469 kts | 335° |
| 2026-05-06 09:25 | -22.69061 | 14.54620 | 40096 ft | 469 kts | 335° |
| 2026-05-06 09:26 | -22.62820 | 14.52519 | 40091 ft | 469 kts | 335° |
| 2026-05-06 09:26 | -22.56581 | 14.50421 | 40092 ft | 469 kts | 335° |
| 2026-05-06 09:27 | -22.50335 | 14.48322 | 40091 ft | 469 kts | 336° |
| 2026-05-06 09:27 | -22.44106 | 14.46232 | 40093 ft | 468 kts | 336° |
| 2026-05-06 09:28 | -22.37877 | 14.44143 | 40093 ft | 468 kts | 336° |
| 2026-05-06 09:28 | -22.31645 | 14.42055 | 40093 ft | 469 kts | 336° |
| 2026-05-06 09:29 | -22.25420 | 14.39972 | 40095 ft | 469 kts | 336° |
| 2026-05-06 09:29 | -22.19179 | 14.37884 | 40097 ft | 469 kts | 336° |
| 2026-05-06 09:30 | -22.12940 | 14.35800 | 40102 ft | 469 kts | 336° |
| 2026-05-06 09:30 | -22.06698 | 14.33717 | 40108 ft | 469 kts | 336° |
| 2026-05-06 09:31 | -22.00450 | 14.31633 | 40108 ft | 469 kts | 336° |
| 2026-05-06 09:31 | -21.94199 | 14.29551 | 40105 ft | 470 kts | 336° |
| 2026-05-06 09:32 | -21.87952 | 14.27468 | 40110 ft | 469 kts | 336° |
| 2026-05-06 09:32 | -21.81717 | 14.25391 | 40110 ft | 469 kts | 336° |
| 2026-05-06 09:33 | -21.75677 | 14.23380 | 40103 ft | 469 kts | 336° |
| 2026-05-06 09:33 | -21.69417 | 14.21298 | 40104 ft | 469 kts | 336° |
| 2026-05-06 09:34 | -21.63171 | 14.19223 | 40109 ft | 469 kts | 336° |
| 2026-05-06 09:34 | -21.57111 | 14.17212 | 40107 ft | 469 kts | 336° |
| 2026-05-06 09:35 | -21.50862 | 14.15139 | 40108 ft | 470 kts | 336° |
| 2026-05-06 09:35 | -21.44594 | 14.13062 | 40107 ft | 471 kts | 336° |
| 2026-05-06 09:36 | -21.38314 | 14.10983 | 40106 ft | 472 kts | 336° |
| 2026-05-06 09:36 | -21.32025 | 14.08903 | 40105 ft | 473 kts | 336° |
| 2026-05-06 09:37 | -21.25726 | 14.06821 | 40102 ft | 474 kts | 336° |
| 2026-05-06 09:37 | -21.19405 | 14.04735 | 40099 ft | 475 kts | 337° |
| 2026-05-06 09:38 | -21.13081 | 14.02649 | 40096 ft | 476 kts | 336° |
| 2026-05-06 09:38 | -21.06744 | 14.00561 | 40093 ft | 476 kts | 336° |
| 2026-05-06 09:39 | -21.00400 | 13.98481 | 40086 ft | 477 kts | 336° |
| 2026-05-06 09:39 | -20.94049 | 13.96400 | 40091 ft | 477 kts | 336° |
| 2026-05-06 09:40 | -20.87685 | 13.94317 | 40095 ft | 477 kts | 336° |
| 2026-05-06 09:40 | -20.78144 | 13.91197 | 40090 ft | 477 kts | 336° |
| 2026-05-06 09:41 | -20.72597 | 13.89384 | 40093 ft | 477 kts | 336° |
| 2026-05-06 09:41 | -20.66245 | 13.87311 | 40086 ft | 477 kts | 336° |
| 2026-05-06 09:42 | -20.60289 | 13.85368 | 40085 ft | 477 kts | 336° |
| 2026-05-06 09:42 | -20.53933 | 13.83297 | 40082 ft | 477 kts | 336° |
| 2026-05-06 09:43 | -20.47572 | 13.81226 | 40082 ft | 477 kts | 336° |
| 2026-05-06 09:43 | -20.41217 | 13.79158 | 40086 ft | 477 kts | 336° |
| 2026-05-06 09:44 | -20.34863 | 13.77093 | 40092 ft | 476 kts | 336° |
| 2026-05-06 09:44 | -20.28520 | 13.75033 | 40097 ft | 476 kts | 336° |
| 2026-05-06 09:45 | -20.22179 | 13.72975 | 40102 ft | 476 kts | 336° |
| 2026-05-06 09:45 | -20.15837 | 13.70919 | 40095 ft | 476 kts | 336° |
| 2026-05-06 09:46 | -20.09494 | 13.68864 | 40092 ft | 476 kts | 336° |
| 2026-05-06 09:46 | -20.03153 | 13.66810 | 40082 ft | 476 kts | 336° |
| 2026-05-06 09:47 | -19.96813 | 13.64758 | 40091 ft | 476 kts | 336° |
| 2026-05-06 09:47 | -19.90475 | 13.62708 | 40089 ft | 475 kts | 336° |
| 2026-05-06 09:48 | -19.84140 | 13.60661 | 40091 ft | 475 kts | 336° |
| 2026-05-06 09:48 | -19.77808 | 13.58617 | 40100 ft | 475 kts | 336° |
| 2026-05-06 09:49 | -19.72065 | 13.56764 | 40101 ft | 475 kts | 336° |
| 2026-05-06 09:49 | -19.65725 | 13.54721 | 40102 ft | 475 kts | 336° |
| 2026-05-06 09:50 | -19.59512 | 13.52718 | 40089 ft | 475 kts | 336° |
| 2026-05-06 09:50 | -19.53190 | 13.50682 | 40098 ft | 474 kts | 336° |
| 2026-05-06 09:51 | -19.46864 | 13.48646 | 40095 ft | 474 kts | 336° |
| 2026-05-06 09:51 | -19.40538 | 13.46612 | 40094 ft | 474 kts | 336° |
| 2026-05-06 09:52 | -19.34222 | 13.44583 | 40084 ft | 474 kts | 335° |
| 2026-05-06 09:52 | -19.27904 | 13.42555 | 40087 ft | 474 kts | 336° |
| 2026-05-06 09:53 | -19.21586 | 13.40529 | 40078 ft | 474 kts | 336° |
| 2026-05-06 09:53 | -19.15269 | 13.38505 | 40072 ft | 474 kts | 336° |
| 2026-05-06 09:54 | -19.08945 | 13.36479 | 40074 ft | 474 kts | 336° |
| 2026-05-06 09:54 | -19.02629 | 13.34459 | 40105 ft | 473 kts | 336° |
| 2026-05-06 09:55 | -18.96300 | 13.32435 | 40092 ft | 475 kts | 336° |
| 2026-05-06 09:55 | -18.89952 | 13.30406 | 40092 ft | 476 kts | 336° |
| 2026-05-06 09:56 | -18.83593 | 13.28376 | 40092 ft | 477 kts | 336° |
| 2026-05-06 09:56 | -18.77229 | 13.26347 | 40088 ft | 478 kts | 336° |
| 2026-05-06 09:57 | -18.71680 | 13.24578 | 40090 ft | 478 kts | 336° |
| 2026-05-06 09:57 | -18.65293 | 13.22544 | 40094 ft | 479 kts | 336° |